sensor_id;sensor_type;location;lat;lon;timestamp;pressure;altitude;pressure_sealevel;temperature;humidity
15817;BME280;8009;50.070;8.232;2024-03-25T00:02:10;99133.28;;;11.35;48.79
15817;BME280;8009;50.070;8.232;2024-03-25T00:04:35;99121.16;;;11.58;48.39
15817;BME280;8009;50.070;8.232;2024-03-25T00:07:01;99130.41;;;11.94;47.55
15817;BME280;8009;50.070;8.232;2024-03-25T00:09:30;99129.25;;;11.97;46.96
15817;BME280;8009;50.070;8.232;2024-03-25T00:11:56;99140.81;;;11.51;48.47
15817;BME280;8009;50.070;8.232;2024-03-25T00:14:22;99128.03;;;12.19;47.99
15817;BME280;8009;50.070;8.232;2024-03-25T00:16:47;99129.41;;;11.95;47.01
15817;BME280;8009;50.070;8.232;2024-03-25T00:19:14;99141.66;;;11.51;47.66
15817;BME280;8009;50.070;8.232;2024-03-25T00:21:39;99138.25;;;11.39;48.25
15817;BME280;8009;50.070;8.232;2024-03-25T00:24:05;99133.25;;;11.74;48.61
15817;BME280;8009;50.070;8.232;2024-03-25T00:26:34;99131.00;;;11.30;48.39
15817;BME280;8009;50.070;8.232;2024-03-25T00:29:00;99131.25;;;11.66;47.74
15817;BME280;8009;50.070;8.232;2024-03-25T00:31:25;99145.91;;;11.63;48.01
15817;BME280;8009;50.070;8.232;2024-03-25T00:33:51;99140.53;;;11.44;48.91
15817;BME280;8009;50.070;8.232;2024-03-25T00:36:17;99144.25;;;11.53;49.42
15817;BME280;8009;50.070;8.232;2024-03-25T00:38:43;99140.91;;;12.07;46.33
15817;BME280;8009;50.070;8.232;2024-03-25T00:41:09;99143.78;;;11.67;47.40
15817;BME280;8009;50.070;8.232;2024-03-25T00:43:37;99144.50;;;11.88;46.86
15817;BME280;8009;50.070;8.232;2024-03-25T00:46:03;99138.69;;;11.83;47.15
15817;BME280;8009;50.070;8.232;2024-03-25T00:48:29;99145.06;;;11.63;47.66
15817;BME280;8009;50.070;8.232;2024-03-25T00:50:55;99144.47;;;11.79;47.27
15817;BME280;8009;50.070;8.232;2024-03-25T00:53:21;99145.63;;;11.66;46.66
15817;BME280;8009;50.070;8.232;2024-03-25T00:55:47;99151.75;;;11.39;47.73
15817;BME280;8009;50.070;8.232;2024-03-25T00:58:14;99148.78;;;11.42;48.00
15817;BME280;8009;50.070;8.232;2024-03-25T01:00:43;99146.50;;;11.47;47.74
15817;BME280;8009;50.070;8.232;2024-03-25T01:03:09;99146.78;;;11.44;47.20
15817;BME280;8009;50.070;8.232;2024-03-25T01:05:34;99146.94;;;11.53;47.42
15817;BME280;8009;50.070;8.232;2024-03-25T01:08:00;99154.47;;;11.49;47.17
15817;BME280;8009;50.070;8.232;2024-03-25T01:10:26;99141.38;;;11.64;46.65
15817;BME280;8009;50.070;8.232;2024-03-25T01:12:52;99148.19;;;11.29;47.62
15817;BME280;8009;50.070;8.232;2024-03-25T01:15:17;99149.66;;;11.33;47.89
15817;BME280;8009;50.070;8.232;2024-03-25T01:17:46;99142.63;;;11.60;47.10
15817;BME280;8009;50.070;8.232;2024-03-25T01:20:11;99149.19;;;11.28;47.27
15817;BME280;8009;50.070;8.232;2024-03-25T01:22:37;99150.47;;;11.24;47.59
15817;BME280;8009;50.070;8.232;2024-03-25T01:25:03;99152.31;;;11.62;46.99
15817;BME280;8009;50.070;8.232;2024-03-25T01:27:29;99151.19;;;11.65;47.10
15817;BME280;8009;50.070;8.232;2024-03-25T01:29:55;99148.50;;;11.65;46.62
15817;BME280;8009;50.070;8.232;2024-03-25T01:32:21;99142.38;;;11.43;47.25
15817;BME280;8009;50.070;8.232;2024-03-25T01:34:49;99156.75;;;11.54;47.13
15817;BME280;8009;50.070;8.232;2024-03-25T01:37:15;99157.81;;;10.93;48.64
15817;BME280;8009;50.070;8.232;2024-03-25T01:39:41;99150.75;;;11.40;47.98
15817;BME280;8009;50.070;8.232;2024-03-25T01:42:07;99152.75;;;11.19;47.84
15817;BME280;8009;50.070;8.232;2024-03-25T01:44:33;99150.34;;;11.64;46.97
15817;BME280;8009;50.070;8.232;2024-03-25T01:46:59;99150.34;;;11.55;47.17
15817;BME280;8009;50.070;8.232;2024-03-25T01:49:25;99149.03;;;11.10;47.48
15817;BME280;8009;50.070;8.232;2024-03-25T01:51:56;99144.94;;;11.26;48.09
15817;BME280;8009;50.070;8.232;2024-03-25T01:54:26;99144.97;;;10.76;49.08
15817;BME280;8009;50.070;8.232;2024-03-25T01:56:52;99145.59;;;10.89;48.84
15817;BME280;8009;50.070;8.232;2024-03-25T01:59:18;99155.91;;;11.34;47.16
15817;BME280;8009;50.070;8.232;2024-03-25T02:01:46;99159.56;;;11.33;47.41
15817;BME280;8009;50.070;8.232;2024-03-25T02:04:12;99155.44;;;11.29;47.69
15817;BME280;8009;50.070;8.232;2024-03-25T02:06:40;99159.44;;;11.25;48.48
15817;BME280;8009;50.070;8.232;2024-03-25T02:09:10;99169.47;;;10.93;48.67
15817;BME280;8009;50.070;8.232;2024-03-25T02:11:38;99164.84;;;11.15;48.21
15817;BME280;8009;50.070;8.232;2024-03-25T02:14:04;99161.59;;;10.31;49.28
15817;BME280;8009;50.070;8.232;2024-03-25T02:16:31;99161.84;;;11.18;48.12
15817;BME280;8009;50.070;8.232;2024-03-25T02:18:56;99165.56;;;11.27;47.17
15817;BME280;8009;50.070;8.232;2024-03-25T02:21:22;99167.78;;;11.02;47.61
15817;BME280;8009;50.070;8.232;2024-03-25T02:23:49;99164.81;;;10.95;48.43
15817;BME280;8009;50.070;8.232;2024-03-25T02:26:21;99160.16;;;10.67;48.64
15817;BME280;8009;50.070;8.232;2024-03-25T02:28:46;99164.19;;;10.82;48.63
15817;BME280;8009;50.070;8.232;2024-03-25T02:31:12;99160.91;;;10.79;48.54
15817;BME280;8009;50.070;8.232;2024-03-25T02:33:38;99169.78;;;11.00;48.35
15817;BME280;8009;50.070;8.232;2024-03-25T02:36:04;99170.91;;;10.97;48.04
15817;BME280;8009;50.070;8.232;2024-03-25T02:38:30;99164.59;;;10.78;48.24
15817;BME280;8009;50.070;8.232;2024-03-25T02:40:58;99161.59;;;10.61;48.66
15817;BME280;8009;50.070;8.232;2024-03-25T02:43:27;99164.66;;;10.97;48.05
15817;BME280;8009;50.070;8.232;2024-03-25T02:45:53;99159.63;;;10.73;48.41
15817;BME280;8009;50.070;8.232;2024-03-25T02:48:18;99152.56;;;10.91;48.02
15817;BME280;8009;50.070;8.232;2024-03-25T02:50:44;99158.31;;;10.58;48.91
15817;BME280;8009;50.070;8.232;2024-03-25T02:53:10;99157.19;;;10.70;48.49
15817;BME280;8009;50.070;8.232;2024-03-25T02:55:36;99169.38;;;10.55;49.43
15817;BME280;8009;50.070;8.232;2024-03-25T02:58:01;99170.44;;;10.73;48.96
15817;BME280;8009;50.070;8.232;2024-03-25T03:00:30;99168.00;;;10.70;48.52
15817;BME280;8009;50.070;8.232;2024-03-25T03:02:55;99173.22;;;10.62;49.45
15817;BME280;8009;50.070;8.232;2024-03-25T03:05:21;99168.94;;;10.59;49.31
15817;BME280;8009;50.070;8.232;2024-03-25T03:07:47;99166.59;;;10.45;49.97
15817;BME280;8009;50.070;8.232;2024-03-25T03:10:13;99167.31;;;10.78;48.50
15817;BME280;8009;50.070;8.232;2024-03-25T03:12:38;99170.97;;;10.67;49.24
15817;BME280;8009;50.070;8.232;2024-03-25T03:15:05;99169.69;;;10.61;49.21
15817;BME280;8009;50.070;8.232;2024-03-25T03:17:34;99166.69;;;10.64;49.38
15817;BME280;8009;50.070;8.232;2024-03-25T03:19:59;99169.28;;;10.76;49.27
15817;BME280;8009;50.070;8.232;2024-03-25T03:22:25;99167.16;;;10.69;49.27
15817;BME280;8009;50.070;8.232;2024-03-25T03:24:51;99164.78;;;10.45;50.22
15817;BME280;8009;50.070;8.232;2024-03-25T03:27:19;99164.41;;;10.29;50.37
15817;BME280;8009;50.070;8.232;2024-03-25T03:29:45;99159.97;;;9.97;51.59
15817;BME280;8009;50.070;8.232;2024-03-25T03:32:10;99167.91;;;9.57;53.57
15817;BME280;8009;50.070;8.232;2024-03-25T03:34:39;99163.94;;;10.03;51.88
15817;BME280;8009;50.070;8.232;2024-03-25T03:37:04;99169.34;;;10.24;51.00
15817;BME280;8009;50.070;8.232;2024-03-25T03:39:30;99157.31;;;10.28;51.33
15817;BME280;8009;50.070;8.232;2024-03-25T03:41:56;99161.19;;;10.14;51.02
15817;BME280;8009;50.070;8.232;2024-03-25T03:44:21;99158.63;;;9.92;51.68
15817;BME280;8009;50.070;8.232;2024-03-25T03:46:47;99151.91;;;10.28;51.26
15817;BME280;8009;50.070;8.232;2024-03-25T03:49:13;99151.31;;;10.24;51.08
15817;BME280;8009;50.070;8.232;2024-03-25T03:51:41;99163.56;;;9.87;52.43
15817;BME280;8009;50.070;8.232;2024-03-25T03:54:07;99152.13;;;9.94;51.58
15817;BME280;8009;50.070;8.232;2024-03-25T03:56:33;99160.63;;;9.90;52.50
15817;BME280;8009;50.070;8.232;2024-03-25T03:58:58;99159.56;;;9.60;53.68
15817;BME280;8009;50.070;8.232;2024-03-25T04:01:24;99153.16;;;10.03;50.96
15817;BME280;8009;50.070;8.232;2024-03-25T04:03:50;99156.00;;;10.01;52.06
15817;BME280;8009;50.070;8.232;2024-03-25T04:06:16;99163.94;;;9.40;52.66
15817;BME280;8009;50.070;8.232;2024-03-25T04:08:44;99169.28;;;9.72;51.28
15817;BME280;8009;50.070;8.232;2024-03-25T04:11:10;99170.69;;;9.35;51.95
15817;BME280;8009;50.070;8.232;2024-03-25T04:13:35;99167.38;;;10.05;50.44
15817;BME280;8009;50.070;8.232;2024-03-25T04:16:02;99160.56;;;10.01;50.91
15817;BME280;8009;50.070;8.232;2024-03-25T04:18:28;99158.84;;;10.00;50.63
15817;BME280;8009;50.070;8.232;2024-03-25T04:20:54;99151.94;;;9.86;50.69
15817;BME280;8009;50.070;8.232;2024-03-25T04:23:20;99153.78;;;9.65;51.53
15817;BME280;8009;50.070;8.232;2024-03-25T04:25:48;99150.53;;;9.50;52.00
15817;BME280;8009;50.070;8.232;2024-03-25T04:28:14;99140.63;;;9.18;53.27
15817;BME280;8009;50.070;8.232;2024-03-25T04:30:39;99139.59;;;9.31;52.42
15817;BME280;8009;50.070;8.232;2024-03-25T04:33:05;99146.91;;;10.02;51.25
15817;BME280;8009;50.070;8.232;2024-03-25T04:35:31;99150.34;;;9.84;51.69
15817;BME280;8009;50.070;8.232;2024-03-25T04:37:56;99151.38;;;10.13;50.83
15817;BME280;8009;50.070;8.232;2024-03-25T04:40:22;99153.84;;;9.95;51.51
15817;BME280;8009;50.070;8.232;2024-03-25T04:42:51;99152.78;;;10.08;51.30
15817;BME280;8009;50.070;8.232;2024-03-25T04:45:17;99156.63;;;10.15;50.91
15817;BME280;8009;50.070;8.232;2024-03-25T04:47:42;99152.56;;;10.20;50.42
15817;BME280;8009;50.070;8.232;2024-03-25T04:50:09;99162.25;;;9.60;52.13
15817;BME280;8009;50.070;8.232;2024-03-25T04:52:35;99156.47;;;9.65;52.39
15817;BME280;8009;50.070;8.232;2024-03-25T04:55:00;99158.84;;;10.00;51.39
15817;BME280;8009;50.070;8.232;2024-03-25T04:57:26;99157.84;;;10.01;51.26
15817;BME280;8009;50.070;8.232;2024-03-25T04:59:54;99169.53;;;9.48;53.30
15817;BME280;8009;50.070;8.232;2024-03-25T05:02:20;99180.88;;;9.63;52.81
15817;BME280;8009;50.070;8.232;2024-03-25T05:04:46;99163.44;;;9.67;52.13
15817;BME280;8009;50.070;8.232;2024-03-25T05:07:11;99168.09;;;9.65;52.30
15817;BME280;8009;50.070;8.232;2024-03-25T05:09:37;99171.59;;;9.98;51.39
15817;BME280;8009;50.070;8.232;2024-03-25T05:12:03;99177.59;;;9.81;51.73
15817;BME280;8009;50.070;8.232;2024-03-25T05:14:29;99175.56;;;9.73;51.63
15817;BME280;8009;50.070;8.232;2024-03-25T05:16:58;99174.22;;;9.46;52.09
15817;BME280;8009;50.070;8.232;2024-03-25T05:19:23;99185.50;;;9.40;52.88
15817;BME280;8009;50.070;8.232;2024-03-25T05:21:49;99191.50;;;9.65;52.13
15817;BME280;8009;50.070;8.232;2024-03-25T05:24:15;99196.91;;;9.65;52.63
15817;BME280;8009;50.070;8.232;2024-03-25T05:26:41;99188.97;;;9.31;53.48
15817;BME280;8009;50.070;8.232;2024-03-25T05:29:07;99194.47;;;9.62;52.01
15817;BME280;8009;50.070;8.232;2024-03-25T05:31:33;99189.44;;;9.36;52.85
15817;BME280;8009;50.070;8.232;2024-03-25T05:34:01;99197.75;;;9.33;53.11
15817;BME280;8009;50.070;8.232;2024-03-25T05:36:27;99201.03;;;9.48;52.42
15817;BME280;8009;50.070;8.232;2024-03-25T05:38:53;99201.88;;;9.16;53.73
15817;BME280;8009;50.070;8.232;2024-03-25T05:41:19;99208.25;;;9.47;52.39
15817;BME280;8009;50.070;8.232;2024-03-25T05:43:44;99198.78;;;9.53;52.24
15817;BME280;8009;50.070;8.232;2024-03-25T05:46:10;99202.81;;;9.26;53.08
15817;BME280;8009;50.070;8.232;2024-03-25T05:48:36;99192.31;;;9.23;54.05
15817;BME280;8009;50.070;8.232;2024-03-25T05:51:05;99208.31;;;9.57;52.78
15817;BME280;8009;50.070;8.232;2024-03-25T05:53:34;99213.22;;;9.63;52.13
15817;BME280;8009;50.070;8.232;2024-03-25T05:56:00;99202.66;;;9.92;51.79
15817;BME280;8009;50.070;8.232;2024-03-25T05:58:27;99211.16;;;9.56;52.37
15817;BME280;8009;50.070;8.232;2024-03-25T06:00:53;99214.03;;;9.43;53.16
15817;BME280;8009;50.070;8.232;2024-03-25T06:03:19;99210.00;;;9.37;52.83
15817;BME280;8009;50.070;8.232;2024-03-25T06:05:45;99208.53;;;9.33;53.25
15817;BME280;8009;50.070;8.232;2024-03-25T06:08:13;99214.28;;;9.40;53.17
15817;BME280;8009;50.070;8.232;2024-03-25T06:10:41;99211.97;;;9.67;51.87
15817;BME280;8009;50.070;8.232;2024-03-25T06:13:07;99213.56;;;8.83;54.28
15817;BME280;8009;50.070;8.232;2024-03-25T06:15:33;99203.38;;;8.98;53.98
15817;BME280;8009;50.070;8.232;2024-03-25T06:17:58;99204.91;;;9.55;52.03
15817;BME280;8009;50.070;8.232;2024-03-25T06:20:24;99209.22;;;9.79;51.96
15817;BME280;8009;50.070;8.232;2024-03-25T06:22:50;99212.31;;;9.74;51.85
15817;BME280;8009;50.070;8.232;2024-03-25T06:25:18;99217.03;;;10.02;51.18
15817;BME280;8009;50.070;8.232;2024-03-25T06:27:44;99212.78;;;9.47;52.75
15817;BME280;8009;50.070;8.232;2024-03-25T06:30:11;99219.41;;;9.75;51.71
15817;BME280;8009;50.070;8.232;2024-03-25T06:32:52;99225.66;;;9.75;52.21
15817;BME280;8009;50.070;8.232;2024-03-25T06:35:33;99229.59;;;9.71;52.03
15817;BME280;8009;50.070;8.232;2024-03-25T06:37:58;99235.13;;;9.91;51.19
15817;BME280;8009;50.070;8.232;2024-03-25T06:40:27;99234.97;;;10.04;50.63
15817;BME280;8009;50.070;8.232;2024-03-25T06:42:52;99238.31;;;9.96;50.94
15817;BME280;8009;50.070;8.232;2024-03-25T06:45:18;99244.06;;;9.91;51.98
15817;BME280;8009;50.070;8.232;2024-03-25T06:47:44;99240.81;;;10.09;51.48
15817;BME280;8009;50.070;8.232;2024-03-25T06:50:09;99238.25;;;10.28;50.84
15817;BME280;8009;50.070;8.232;2024-03-25T06:52:35;99232.44;;;10.54;50.21
15817;BME280;8009;50.070;8.232;2024-03-25T06:55:01;99229.34;;;10.58;50.66
15817;BME280;8009;50.070;8.232;2024-03-25T06:57:29;99236.56;;;10.27;51.08
15817;BME280;8009;50.070;8.232;2024-03-25T06:59:55;99224.63;;;10.60;49.80
15817;BME280;8009;50.070;8.232;2024-03-25T07:02:21;99239.28;;;10.16;51.33
15817;BME280;8009;50.070;8.232;2024-03-25T07:04:47;99237.09;;;10.52;50.53
15817;BME280;8009;50.070;8.232;2024-03-25T07:07:12;99245.19;;;10.10;51.71
15817;BME280;8009;50.070;8.232;2024-03-25T07:09:38;99240.03;;;10.39;50.36
15817;BME280;8009;50.070;8.232;2024-03-25T07:12:04;99244.03;;;10.23;50.88
15817;BME280;8009;50.070;8.232;2024-03-25T07:14:33;99235.66;;;10.47;50.62
15817;BME280;8009;50.070;8.232;2024-03-25T07:16:59;99235.66;;;10.78;50.11
15817;BME280;8009;50.070;8.232;2024-03-25T07:19:25;99250.41;;;11.64;48.51
15817;BME280;8009;50.070;8.232;2024-03-25T07:21:51;99246.41;;;10.38;50.81
15817;BME280;8009;50.070;8.232;2024-03-25T07:24:16;99252.00;;;10.04;52.39
15817;BME280;8009;50.070;8.232;2024-03-25T07:26:42;99248.59;;;10.74;50.60
15817;BME280;8009;50.070;8.232;2024-03-25T07:29:08;99252.31;;;10.53;50.71
15817;BME280;8009;50.070;8.232;2024-03-25T07:31:36;99246.28;;;10.70;50.53
15817;BME280;8009;50.070;8.232;2024-03-25T07:34:02;99245.97;;;10.63;50.59
15817;BME280;8009;50.070;8.232;2024-03-25T07:36:28;99252.50;;;10.91;49.78
15817;BME280;8009;50.070;8.232;2024-03-25T07:38:53;99245.78;;;10.86;49.89
15817;BME280;8009;50.070;8.232;2024-03-25T07:41:19;99254.63;;;10.57;50.74
15817;BME280;8009;50.070;8.232;2024-03-25T07:43:45;99246.72;;;10.75;49.87
15817;BME280;8009;50.070;8.232;2024-03-25T07:46:11;99256.34;;;10.16;50.87
15817;BME280;8009;50.070;8.232;2024-03-25T07:48:39;99248.59;;;10.74;51.07
15817;BME280;8009;50.070;8.232;2024-03-25T07:51:05;99249.41;;;10.96;48.33
15817;BME280;8009;50.070;8.232;2024-03-25T07:53:30;99250.91;;;10.28;50.49
15817;BME280;8009;50.070;8.232;2024-03-25T07:55:56;99246.72;;;10.75;49.04
15817;BME280;8009;50.070;8.232;2024-03-25T07:58:22;99245.16;;;11.13;49.28
15817;BME280;8009;50.070;8.232;2024-03-25T08:00:48;99244.63;;;11.29;48.17
15817;BME280;8009;50.070;8.232;2024-03-25T08:03:13;99247.09;;;11.41;46.93
15817;BME280;8009;50.070;8.232;2024-03-25T08:05:42;99235.94;;;10.75;48.87
15817;BME280;8009;50.070;8.232;2024-03-25T08:08:07;99240.19;;;11.18;47.93
15817;BME280;8009;50.070;8.232;2024-03-25T08:10:33;99235.78;;;11.17;47.50
15817;BME280;8009;50.070;8.232;2024-03-25T08:12:59;99234.81;;;11.28;48.20
15817;BME280;8009;50.070;8.232;2024-03-25T08:15:25;99224.75;;;11.39;48.49
15817;BME280;8009;50.070;8.232;2024-03-25T08:17:50;99229.88;;;11.52;47.22
15817;BME280;8009;50.070;8.232;2024-03-25T08:20:16;99225.34;;;11.62;46.42
15817;BME280;8009;50.070;8.232;2024-03-25T08:22:44;99226.75;;;11.66;46.00
15817;BME280;8009;50.070;8.232;2024-03-25T08:25:10;99223.19;;;11.46;47.17
15817;BME280;8009;50.070;8.232;2024-03-25T08:27:36;99231.44;;;11.35;47.55
15817;BME280;8009;50.070;8.232;2024-03-25T08:30:01;99221.22;;;10.98;46.80
15817;BME280;8009;50.070;8.232;2024-03-25T08:32:27;99220.63;;;11.26;46.86
15817;BME280;8009;50.070;8.232;2024-03-25T08:34:53;99223.06;;;11.77;45.79
15817;BME280;8009;50.070;8.232;2024-03-25T08:37:19;99227.91;;;11.54;46.69
15817;BME280;8009;50.070;8.232;2024-03-25T08:39:49;99227.16;;;11.52;46.69
15817;BME280;8009;50.070;8.232;2024-03-25T08:42:14;99234.34;;;11.92;46.40
15817;BME280;8009;50.070;8.232;2024-03-25T08:44:40;99230.63;;;11.93;45.56
15817;BME280;8009;50.070;8.232;2024-03-25T08:47:06;99230.75;;;11.82;46.09
15817;BME280;8009;50.070;8.232;2024-03-25T08:49:32;99220.28;;;12.45;45.49
15817;BME280;8009;50.070;8.232;2024-03-25T08:51:57;99217.13;;;12.59;44.68
15817;BME280;8009;50.070;8.232;2024-03-25T08:54:23;99217.91;;;12.23;45.12
15817;BME280;8009;50.070;8.232;2024-03-25T08:56:51;99210.03;;;12.39;44.19
15817;BME280;8009;50.070;8.232;2024-03-25T08:59:17;99212.84;;;12.57;44.95
15817;BME280;8009;50.070;8.232;2024-03-25T09:01:43;99209.75;;;12.79;44.32
15817;BME280;8009;50.070;8.232;2024-03-25T09:04:09;99212.38;;;12.61;44.86
15817;BME280;8009;50.070;8.232;2024-03-25T09:06:35;99204.59;;;12.86;43.50
15817;BME280;8009;50.070;8.232;2024-03-25T09:09:01;99213.72;;;11.91;45.26
15817;BME280;8009;50.070;8.232;2024-03-25T09:11:42;99206.53;;;12.19;44.27
15817;BME280;8009;50.070;8.232;2024-03-25T09:14:10;99212.94;;;12.08;45.30
15817;BME280;8009;50.070;8.232;2024-03-25T09:16:36;99203.16;;;12.54;44.49
15817;BME280;8009;50.070;8.232;2024-03-25T09:19:02;99208.28;;;12.57;48.63
15817;BME280;8009;50.070;8.232;2024-03-25T09:21:28;99220.69;;;11.84;44.00
15817;BME280;8009;50.070;8.232;2024-03-25T09:23:53;99200.44;;;12.91;43.81
15817;BME280;8009;50.070;8.232;2024-03-25T09:26:19;99205.38;;;12.68;44.20
15817;BME280;8009;50.070;8.232;2024-03-25T09:28:45;99200.88;;;12.50;43.77
15817;BME280;8009;50.070;8.232;2024-03-25T09:31:14;99189.75;;;12.90;43.83
15817;BME280;8009;50.070;8.232;2024-03-25T09:33:39;99190.81;;;12.69;43.20
15817;BME280;8009;50.070;8.232;2024-03-25T09:36:05;99192.03;;;12.48;43.76
15817;BME280;8009;50.070;8.232;2024-03-25T09:38:31;99182.31;;;12.64;44.43
15817;BME280;8009;50.070;8.232;2024-03-25T09:40:57;99177.16;;;12.99;42.67
15817;BME280;8009;50.070;8.232;2024-03-25T09:43:25;99181.09;;;12.39;44.22
15817;BME280;8009;50.070;8.232;2024-03-25T09:45:54;99176.97;;;13.28;42.05
15817;BME280;8009;50.070;8.232;2024-03-25T09:48:23;99173.25;;;12.83;42.54
15817;BME280;8009;50.070;8.232;2024-03-25T09:50:49;99174.66;;;13.69;50.20
15817;BME280;8009;50.070;8.232;2024-03-25T09:53:15;99161.03;;;12.97;41.80
15817;BME280;8009;50.070;8.232;2024-03-25T09:55:42;99157.41;;;13.06;41.82
15817;BME280;8009;50.070;8.232;2024-03-25T09:58:08;99151.22;;;12.31;42.44
15817;BME280;8009;50.070;8.232;2024-03-25T10:00:34;99141.63;;;13.02;41.48
15817;BME280;8009;50.070;8.232;2024-03-25T10:03:00;99145.31;;;13.64;41.67
15817;BME280;8009;50.070;8.232;2024-03-25T10:05:28;99142.13;;;13.69;42.82
15817;BME280;8009;50.070;8.232;2024-03-25T10:07:54;99133.44;;;13.65;41.57
15817;BME280;8009;50.070;8.232;2024-03-25T10:10:20;99128.34;;;13.26;40.78
15817;BME280;8009;50.070;8.232;2024-03-25T10:12:46;99121.13;;;13.35;39.59
15817;BME280;8009;50.070;8.232;2024-03-25T10:15:15;99120.03;;;13.28;42.49
15817;BME280;8009;50.070;8.232;2024-03-25T10:17:41;99109.19;;;13.63;41.88
15817;BME280;8009;50.070;8.232;2024-03-25T10:20:12;99116.78;;;13.78;41.60
15817;BME280;8009;50.070;8.232;2024-03-25T10:22:45;99116.53;;;13.89;41.08
15817;BME280;8009;50.070;8.232;2024-03-25T10:25:22;99113.91;;;12.90;40.61
15817;BME280;8009;50.070;8.232;2024-03-25T10:27:56;99112.50;;;13.75;41.00
15817;BME280;8009;50.070;8.232;2024-03-25T10:30:26;99106.94;;;14.03;40.02
15817;BME280;8009;50.070;8.232;2024-03-25T10:32:59;99106.63;;;13.62;41.85
15817;BME280;8009;50.070;8.232;2024-03-25T10:35:26;99102.81;;;13.73;41.90
15817;BME280;8009;50.070;8.232;2024-03-25T10:37:58;99096.53;;;14.24;39.52
15817;BME280;8009;50.070;8.232;2024-03-25T10:40:27;99090.38;;;14.14;39.66
15817;BME280;8009;50.070;8.232;2024-03-25T10:43:00;99091.97;;;14.25;42.21
15817;BME280;8009;50.070;8.232;2024-03-25T10:45:27;99090.38;;;14.14;37.37
15817;BME280;8009;50.070;8.232;2024-03-25T10:47:56;99097.28;;;13.21;40.11
15817;BME280;8009;50.070;8.232;2024-03-25T10:50:25;99093.19;;;13.78;40.26
15817;BME280;8009;50.070;8.232;2024-03-25T10:52:56;99082.19;;;14.40;38.65
15817;BME280;8009;50.070;8.232;2024-03-25T10:55:23;99079.09;;;13.75;38.14
15817;BME280;8009;50.070;8.232;2024-03-25T10:57:50;99067.69;;;14.23;38.56
15817;BME280;8009;50.070;8.232;2024-03-25T11:00:16;99058.59;;;14.41;38.79
15817;BME280;8009;50.070;8.232;2024-03-25T11:02:43;99054.09;;;14.57;38.17
15817;BME280;8009;50.070;8.232;2024-03-25T11:05:09;99053.25;;;14.57;40.20
15817;BME280;8009;50.070;8.232;2024-03-25T11:07:36;99057.00;;;13.96;42.94
15817;BME280;8009;50.070;8.232;2024-03-25T11:10:07;99047.47;;;13.65;37.64
15817;BME280;8009;50.070;8.232;2024-03-25T11:12:34;99051.38;;;13.63;38.92
15817;BME280;8009;50.070;8.232;2024-03-25T11:15:01;99058.50;;;14.16;40.27
15817;BME280;8009;50.070;8.232;2024-03-25T11:17:27;99058.28;;;15.02;43.14
15817;BME280;8009;50.070;8.232;2024-03-25T11:19:52;99044.56;;;15.12;36.71
15817;BME280;8009;50.070;8.232;2024-03-25T11:22:24;99038.19;;;14.71;38.45
15817;BME280;8009;50.070;8.232;2024-03-25T11:24:50;99028.53;;;14.42;36.50
15817;BME280;8009;50.070;8.232;2024-03-25T11:27:26;99024.56;;;14.12;37.18
15817;BME280;8009;50.070;8.232;2024-03-25T11:29:52;99029.06;;;14.46;36.86
15817;BME280;8009;50.070;8.232;2024-03-25T11:32:17;99027.50;;;14.69;36.66
15817;BME280;8009;50.070;8.232;2024-03-25T11:34:50;99002.06;;;15.27;35.47
15817;BME280;8009;50.070;8.232;2024-03-25T11:37:16;98999.31;;;14.70;36.79
15817;BME280;8009;50.070;8.232;2024-03-25T11:39:41;98997.47;;;14.95;37.67
15817;BME280;8009;50.070;8.232;2024-03-25T11:42:08;98980.84;;;15.31;35.75
15817;BME280;8009;50.070;8.232;2024-03-25T11:44:38;98994.19;;;14.67;35.25
15817;BME280;8009;50.070;8.232;2024-03-25T11:47:04;98981.66;;;13.55;38.01
15817;BME280;8009;50.070;8.232;2024-03-25T11:49:31;98977.78;;;14.93;35.75
15817;BME280;8009;50.070;8.232;2024-03-25T11:51:58;98977.09;;;15.07;36.08
15817;BME280;8009;50.070;8.232;2024-03-25T11:54:27;98970.94;;;15.30;37.32
15817;BME280;8009;50.070;8.232;2024-03-25T11:56:53;98966.16;;;15.48;38.79
15817;BME280;8009;50.070;8.232;2024-03-25T11:59:20;98966.03;;;15.25;40.67
15817;BME280;8009;50.070;8.232;2024-03-25T12:01:49;98961.72;;;15.64;34.83
15817;BME280;8009;50.070;8.232;2024-03-25T12:04:17;98963.09;;;15.68;35.27
15817;BME280;8009;50.070;8.232;2024-03-25T12:06:43;98964.88;;;15.11;34.39
15817;BME280;8009;50.070;8.232;2024-03-25T12:09:10;98954.66;;;15.38;35.96
15817;BME280;8009;50.070;8.232;2024-03-25T12:11:51;98964.78;;;14.04;36.08
15817;BME280;8009;50.070;8.232;2024-03-25T12:14:17;98970.41;;;13.76;36.84
15817;BME280;8009;50.070;8.232;2024-03-25T12:16:43;98952.09;;;14.63;35.68
15817;BME280;8009;50.070;8.232;2024-03-25T12:19:11;98943.63;;;14.91;34.38
15817;BME280;8009;50.070;8.232;2024-03-25T12:21:37;98942.91;;;14.80;34.87
15817;BME280;8009;50.070;8.232;2024-03-25T12:24:03;98931.91;;;14.82;35.03
15817;BME280;8009;50.070;8.232;2024-03-25T12:26:30;98926.91;;;15.51;33.88
15817;BME280;8009;50.070;8.232;2024-03-25T12:28:57;98917.44;;;14.65;34.48
15817;BME280;8009;50.070;8.232;2024-03-25T12:31:23;98915.25;;;15.01;34.69
15817;BME280;8009;50.070;8.232;2024-03-25T12:33:49;98911.50;;;15.02;33.97
15817;BME280;8009;50.070;8.232;2024-03-25T12:36:20;98903.63;;;15.40;33.98
15817;BME280;8009;50.070;8.232;2024-03-25T12:38:54;98902.06;;;15.54;34.66
15817;BME280;8009;50.070;8.232;2024-03-25T12:41:22;98898.00;;;15.50;34.17
15817;BME280;8009;50.070;8.232;2024-03-25T12:43:50;98893.91;;;15.54;35.03
15817;BME280;8009;50.070;8.232;2024-03-25T12:46:16;98892.00;;;14.66;33.79
15817;BME280;8009;50.070;8.232;2024-03-25T12:48:42;98880.63;;;15.67;32.69
15817;BME280;8009;50.070;8.232;2024-03-25T12:51:12;98882.88;;;15.95;32.38
15817;BME280;8009;50.070;8.232;2024-03-25T12:53:41;98880.09;;;15.08;32.81
15817;BME280;8009;50.070;8.232;2024-03-25T12:56:07;98877.31;;;15.32;34.34
15817;BME280;8009;50.070;8.232;2024-03-25T12:58:33;98871.50;;;15.44;33.94
15817;BME280;8009;50.070;8.232;2024-03-25T13:00:59;98867.22;;;15.57;33.82
15817;BME280;8009;50.070;8.232;2024-03-25T13:03:26;98862.78;;;15.56;32.29
15817;BME280;8009;50.070;8.232;2024-03-25T13:05:51;98855.91;;;15.21;32.02
15817;BME280;8009;50.070;8.232;2024-03-25T13:08:17;98851.19;;;14.99;31.44
15817;BME280;8009;50.070;8.232;2024-03-25T13:10:46;98845.91;;;15.14;31.87